首页
METAR-TAF:

METAR-TAF

机场 :

拉塞乌杜尔赫利, 西班牙

纬度: 42-20-29N, 经度: 001-24-17E, 海拔: 802米

当前天气观测

该预报发布于31分钟前的15:30 UTC
风速8节,风向西转西南,在西转西北之间变化
温度 15°C
湿度 41%
气压 1021 hPa
能见度10公里或以上
1500米以下无云,无积雨云

METAR: LESU 271530Z 24008KT 190V290 CAVOK 15/02 Q1021

时间: 17:01 (16:01 UTC)

预报

该预报发布于2小时和1分钟前的14:00 UTC
预报有效从27日的 15点(UTC)到 28日的 15点(UTC)
风速4节,风向多变
能见度10公里或以上
少量云层高于2000英尺
短暂存在
从 27日的 15点(UTC)到 27日的 18点(UTC)
风速15节,风向南转西南,有时为25节阵风
几率 30% :
短暂存在
从 28日的 04点(UTC)到 28日的 15点(UTC)
少量云层高于3000英尺, 塔状积云.
阵雨

TAF: LESU 271400Z 2715/2815 VRB04KT 9999 FEW020 TX15/2814Z TN01/2806Z TEMPO 2715/2718 20015G25KT PROB30 TEMPO 2804/2815 SHRA FEW030TCU

超过4000个机场的气象观测和天气预报(METAR&TAF报告)。

可查询的气象台以黄色和红色小点在地图上表示。

将鼠标移到小点上方,可查看气象台名称。

然后点击查看天气观测和预报。

如需切换地图:点击带黑十字的绿色按钮放大地图;点击带横线的绿色按钮缩小地图;或者点击绿色箭头查看邻近地区的地图。


METAR-TAF: